createdAt,value
2023-03-21T00:00:32.055Z,96239.34
2023-03-21T00:03:00.067Z,96236.16
2023-03-21T00:05:28.307Z,96233.38
2023-03-21T00:07:56.621Z,96229.22
2023-03-21T00:10:39.079Z,96228.50
2023-03-21T00:13:08.430Z,96237.50
2023-03-21T00:16:03.473Z,96220.22
2023-03-21T00:18:32.764Z,96210.72
2023-03-21T00:21:35.558Z,96215.47
2023-03-21T00:23:51.115Z,96229.69
2023-03-21T00:26:18.947Z,96218.78
2023-03-21T00:28:46.968Z,96216.81
2023-03-21T00:31:16.430Z,96216.03
2023-03-21T00:33:44.562Z,96212.50
2023-03-21T00:36:13.940Z,96198.16
2023-03-21T00:38:41.905Z,96213.16
2023-03-21T00:41:25.893Z,96215.66
2023-03-21T00:43:59.544Z,96218.78
2023-03-21T00:46:39.889Z,96209.34
2023-03-21T00:49:10.577Z,96205.41
2023-03-21T00:51:38.450Z,96203.84
2023-03-21T00:54:06.467Z,96186.84
2023-03-21T00:56:34.408Z,96194.38
2023-03-21T00:59:02.334Z,96192.78
2023-03-21T01:01:32.775Z,96198.69
2023-03-21T01:04:05.326Z,96194.38
2023-03-21T01:06:33.893Z,96184.81
2023-03-21T01:09:01.792Z,96185.66
2023-03-21T01:11:29.728Z,96190.41
2023-03-21T01:14:14.554Z,96190.00
2023-03-21T01:16:44.491Z,96189.59
2023-03-21T01:19:25.050Z,96174.50
2023-03-21T01:21:54.390Z,96182.34
2023-03-21T01:24:22.303Z,96190.78
2023-03-21T01:26:50.423Z,96179.28
2023-03-21T01:29:18.391Z,96188.81
2023-03-21T01:31:47.882Z,96186.84
2023-03-21T01:34:15.914Z,96194.22
2023-03-21T01:36:43.804Z,96189.53
2023-03-21T01:39:11.673Z,96187.16
2023-03-21T01:41:44.067Z,96185.56
2023-03-21T01:44:17.370Z,96187.94
2023-03-21T01:47:00.056Z,96186.34
2023-03-21T01:49:39.951Z,96192.63
2023-03-21T01:52:21.017Z,96181.59
2023-03-21T01:54:57.527Z,96191.03
2023-03-21T01:57:40.375Z,96184.72
2023-03-21T02:00:12.536Z,96184.63
2023-03-21T02:02:52.575Z,96173.94
2023-03-21T02:05:28.136Z,96174.41
2023-03-21T02:07:56.025Z,96162.56
2023-03-21T02:10:24.325Z,96173.22
2023-03-21T02:12:55.009Z,96176.78
2023-03-21T02:15:27.608Z,96165.75
2023-03-21T02:18:08.265Z,96166.53
2023-03-21T02:20:56.312Z,96171.97
2023-03-21T02:23:56.921Z,96168.00
2023-03-21T02:27:04.085Z,96168.81
2023-03-21T02:30:17.364Z,96170.72
2023-03-21T02:33:15.408Z,96167.41
2023-03-21T02:36:14.026Z,96161.97
2023-03-21T02:38:56.138Z,96147.97
2023-03-21T02:41:40.525Z,96147.22
2023-03-21T02:44:18.355Z,96150.06
2023-03-21T02:47:04.726Z,96163.91
2023-03-21T02:49:43.279Z,96157.56
2023-03-21T02:52:28.294Z,96148.00
2023-03-21T02:55:13.587Z,96155.97
2023-03-21T02:57:44.287Z,96151.22
2023-03-21T03:00:18.958Z,96151.66
2023-03-21T03:02:48.860Z,96157.94
2023-03-21T03:05:21.999Z,96152.72
2023-03-21T03:08:09.229Z,96148.78
2023-03-21T03:10:54.501Z,96142.84
2023-03-21T03:13:39.237Z,96147.91
2023-03-21T03:16:22.468Z,96145.19
2023-03-21T03:18:55.371Z,96142.00
2023-03-21T03:21:33.818Z,96146.28
2023-03-21T03:24:05.694Z,96138.81
2023-03-21T03:26:42.285Z,96132.91
2023-03-21T03:29:16.613Z,96137.59
2023-03-21T03:31:50.242Z,96134.41
2023-03-21T03:34:23.913Z,96126.56
2023-03-21T03:36:57.599Z,96137.31
2023-03-21T03:39:34.592Z,96144.81
2023-03-21T03:42:25.478Z,96135.31
2023-03-21T03:44:55.671Z,96142.81
2023-03-21T03:47:37.949Z,96143.97
2023-03-21T03:50:18.843Z,96138.47
2023-03-21T03:52:57.423Z,96142.47
2023-03-21T03:55:34.374Z,96136.16
2023-03-21T03:58:08.247Z,96136.03
2023-03-21T04:00:39.205Z,96138.91
2023-03-21T04:03:09.921Z,96133.38
2023-03-21T04:05:37.988Z,96132.94
2023-03-21T04:08:06.835Z,96132.09
2023-03-21T04:10:34.786Z,96136.13
2023-03-21T04:13:04.095Z,96135.72
2023-03-21T04:15:32.046Z,96132.94
2023-03-21T04:17:59.924Z,96125.03
2023-03-21T04:20:36.699Z,96128.13
2023-03-21T04:23:12.807Z,96132.09
2023-03-21T04:25:53.924Z,96128.56
2023-03-21T04:28:25.438Z,96127.00
2023-03-21T04:31:02.186Z,96129.69
2023-03-21T04:33:38.365Z,96128.06
2023-03-21T04:36:09.352Z,96132.47
2023-03-21T04:38:38.147Z,96125.00
2023-03-21T04:41:06.518Z,96132.13
2023-03-21T04:43:36.220Z,96120.34
2023-03-21T04:46:04.123Z,96125.00
2023-03-21T04:48:32.016Z,96131.28
2023-03-21T04:50:59.897Z,96132.00
2023-03-21T04:53:27.863Z,96135.97
2023-03-21T04:55:57.577Z,96130.06
2023-03-21T04:58:25.462Z,96136.44
2023-03-21T05:00:54.794Z,96135.19
2023-03-21T05:03:22.703Z,96131.22
2023-03-21T05:05:51.000Z,96129.22
2023-03-21T05:08:18.875Z,96128.88
2023-03-21T05:10:46.755Z,96131.22
2023-03-21T05:13:16.853Z,96118.22
2023-03-21T05:15:44.824Z,96124.09
2023-03-21T05:18:14.078Z,96130.03
2023-03-21T05:20:43.690Z,96128.88
2023-03-21T05:23:12.253Z,96134.41
2023-03-21T05:25:41.077Z,96121.38
2023-03-21T05:28:09.674Z,96141.53
2023-03-21T05:30:37.664Z,96135.66
2023-03-21T05:33:06.373Z,96138.31
2023-03-21T05:35:35.953Z,96130.53
2023-03-21T05:38:04.035Z,96134.41
2023-03-21T05:40:31.961Z,96144.72
2023-03-21T05:42:59.823Z,96140.81
2023-03-21T05:45:27.941Z,96145.56
2023-03-21T05:47:55.948Z,96141.53
2023-03-21T05:50:23.940Z,96144.75
2023-03-21T05:52:53.140Z,96146.75
2023-03-21T05:55:21.116Z,96150.31
2023-03-21T05:57:49.069Z,96146.47
2023-03-21T06:00:17.989Z,96153.63
2023-03-21T06:02:46.382Z,96161.16
2023-03-21T06:05:14.432Z,96147.09
2023-03-21T06:07:42.315Z,96149.75
2023-03-21T06:10:12.834Z,96145.81
2023-03-21T06:12:40.914Z,96145.81
2023-03-21T06:15:09.866Z,96140.31
2023-03-21T06:17:37.762Z,96138.00
2023-03-21T06:20:07.228Z,96148.25
2023-03-21T06:22:36.633Z,96143.56
2023-03-21T06:25:05.263Z,96139.28
2023-03-21T06:27:34.979Z,96142.88
2023-03-21T06:30:03.423Z,96147.22
2023-03-21T06:32:31.313Z,96139.41
2023-03-21T06:34:59.296Z,96120.03
2023-03-21T06:37:27.532Z,96139.03
2023-03-21T06:39:55.826Z,96139.06
2023-03-21T06:42:25.048Z,96144.28
2023-03-21T06:44:54.276Z,96137.63
2023-03-21T06:47:22.151Z,96148.31
2023-03-21T06:49:50.294Z,96146.41
2023-03-21T06:52:18.224Z,96155.53
2023-03-21T06:54:46.056Z,96142.94
2023-03-21T06:57:13.929Z,96141.78
2023-03-21T06:59:42.689Z,96138.66
2023-03-21T07:02:12.909Z,96147.31
2023-03-21T07:04:40.857Z,96144.25
2023-03-21T07:07:08.758Z,96149.78
2023-03-21T07:09:36.822Z,96149.34
2023-03-21T07:12:04.792Z,96157.66
2023-03-21T07:14:34.564Z,96150.56
2023-03-21T07:17:02.465Z,96152.47
2023-03-21T07:19:32.096Z,96153.69
2023-03-21T07:22:00.182Z,96156.41
2023-03-21T07:24:28.443Z,96156.84
2023-03-21T07:26:56.280Z,96159.25
2023-03-21T07:29:31.806Z,96143.84
2023-03-21T07:31:59.713Z,96148.19
2023-03-21T07:34:33.058Z,96145.50
2023-03-21T07:37:02.301Z,96142.66
2023-03-21T07:39:30.308Z,96146.56
2023-03-21T07:41:58.176Z,96147.88
2023-03-21T07:44:26.746Z,96149.03
2023-03-21T07:46:54.623Z,96153.00
2023-03-21T07:49:22.490Z,96154.19
2023-03-21T07:51:50.408Z,96154.69
2023-03-21T07:54:22.186Z,96160.59
2023-03-21T07:56:50.400Z,96143.94
2023-03-21T07:59:18.448Z,96152.31
2023-03-21T08:01:46.349Z,96144.47
2023-03-21T08:04:14.196Z,96150.00
2023-03-21T08:06:50.137Z,96144.47
2023-03-21T08:09:19.715Z,96149.19
2023-03-21T08:11:47.683Z,96159.88
2023-03-21T08:14:15.633Z,96155.56
2023-03-21T08:16:43.580Z,96146.03
2023-03-21T08:19:11.511Z,96134.16
2023-03-21T08:21:40.200Z,96143.69
2023-03-21T08:24:08.528Z,96142.91
2023-03-21T08:26:38.319Z,96142.94
2023-03-21T08:29:06.836Z,96136.56
2023-03-21T08:31:34.732Z,96137.41
2023-03-21T08:34:02.854Z,96144.53
2023-03-21T08:36:31.700Z,96137.41
2023-03-21T08:39:05.361Z,96131.47
2023-03-21T08:41:33.485Z,96134.25
2023-03-21T08:44:03.321Z,96138.19
2023-03-21T08:46:31.809Z,96135.88
2023-03-21T08:49:00.665Z,96133.09
2023-03-21T08:51:29.661Z,96142.97
2023-03-21T08:53:57.564Z,96134.66
2023-03-21T08:56:25.550Z,96133.09
2023-03-21T08:58:53.466Z,96135.47
2023-03-21T09:01:26.288Z,96140.63
2023-03-21T09:03:54.336Z,96138.63
2023-03-21T09:06:24.696Z,96134.25
2023-03-21T09:08:53.618Z,96134.22
2023-03-21T09:11:21.524Z,96133.78
2023-03-21T09:13:49.406Z,96139.38
2023-03-21T09:16:17.472Z,96147.31
2023-03-21T09:18:48.772Z,96154.06
2023-03-21T09:21:21.050Z,96146.94
2023-03-21T09:23:52.655Z,96146.91
2023-03-21T09:26:21.632Z,96134.16
2023-03-21T09:28:49.808Z,96135.53
2023-03-21T09:31:22.641Z,96127.56
2023-03-21T09:33:53.358Z,96133.88
2023-03-21T09:36:24.876Z,96124.47
2023-03-21T09:38:53.883Z,96126.91
2023-03-21T09:41:43.539Z,96133.66
2023-03-21T09:44:30.099Z,96130.41
2023-03-21T09:47:06.861Z,96116.56
2023-03-21T09:49:43.626Z,96127.84
2023-03-21T09:52:20.637Z,96126.38
2023-03-21T09:54:48.738Z,96111.84
2023-03-21T09:57:28.692Z,96126.63
2023-03-21T10:00:08.666Z,96120.22
2023-03-21T10:02:41.523Z,96109.09
2023-03-21T10:05:19.594Z,96117.66
2023-03-21T10:07:55.487Z,96119.66
2023-03-21T10:10:28.429Z,96115.91
2023-03-21T10:12:58.381Z,96111.34
2023-03-21T10:15:28.149Z,96108.78
2023-03-21T10:18:01.549Z,96109.06
2023-03-21T10:20:35.122Z,96103.56
2023-03-21T10:23:07.059Z,96094.53
2023-03-21T10:25:38.991Z,96095.41
2023-03-21T10:28:10.449Z,96086.84
2023-03-21T10:30:42.362Z,96089.72
2023-03-21T10:33:16.759Z,96091.28
2023-03-21T10:35:52.298Z,96083.84
2023-03-21T10:38:24.209Z,96079.75
2023-03-21T10:40:53.335Z,96082.03
2023-03-21T10:43:42.568Z,96077.81
2023-03-21T10:46:14.885Z,96078.56
2023-03-21T10:48:47.104Z,96073.09
2023-03-21T10:51:21.847Z,96075.19
2023-03-21T10:53:54.968Z,96068.53
2023-03-21T10:56:28.851Z,96078.91
2023-03-21T10:59:00.615Z,96073.00
2023-03-21T11:01:36.394Z,96080.84
2023-03-21T11:04:11.318Z,96080.81
2023-03-21T11:06:44.537Z,96084.34
2023-03-21T11:09:17.524Z,96085.78
2023-03-21T11:11:53.493Z,96077.00
2023-03-21T11:14:35.764Z,96070.97
2023-03-21T11:17:20.023Z,96063.63
2023-03-21T11:19:50.484Z,96057.09
2023-03-21T11:22:23.679Z,96064.13
2023-03-21T11:24:55.487Z,96058.47
2023-03-21T11:27:24.744Z,96061.34
2023-03-21T11:29:53.439Z,96050.75
2023-03-21T11:32:26.118Z,96053.91
2023-03-21T11:35:01.331Z,96055.94
2023-03-21T11:37:34.866Z,96025.22
2023-03-21T11:40:19.226Z,96040.22
2023-03-21T11:42:49.849Z,96039.41
2023-03-21T11:45:20.912Z,96033.91
2023-03-21T11:47:51.197Z,96041.25
2023-03-21T11:50:32.620Z,96026.66
2023-03-21T11:53:27.066Z,96028.91
2023-03-21T11:56:21.350Z,96027.50
2023-03-21T11:59:13.547Z,96021.88
2023-03-21T12:01:57.229Z,96018.84
2023-03-21T12:04:42.270Z,96009.97
2023-03-21T12:07:33.698Z,96008.81
2023-03-21T12:10:22.898Z,96006.69
2023-03-21T12:13:04.370Z,96007.75
2023-03-21T12:15:42.943Z,96004.25
2023-03-21T12:18:27.802Z,95988.34
2023-03-21T12:21:04.891Z,95992.91
2023-03-21T12:23:59.724Z,95992.13
2023-03-21T12:26:33.564Z,95992.41
2023-03-21T12:29:28.124Z,95989.59
2023-03-21T12:32:12.321Z,95977.13
2023-03-21T12:35:10.590Z,95969.63
2023-03-21T12:37:47.599Z,95972.06
2023-03-21T12:40:28.191Z,95970.25
2023-03-21T12:43:25.534Z,95965.09
2023-03-21T12:46:01.078Z,95964.78
2023-03-21T12:48:45.156Z,95963.28
2023-03-21T12:51:17.303Z,95964.78
2023-03-21T12:54:01.896Z,95951.63
2023-03-21T12:56:35.379Z,95957.31
2023-03-21T12:59:19.094Z,95955.84
2023-03-21T13:01:52.463Z,95954.13
2023-03-21T13:04:41.824Z,95937.16
2023-03-21T13:07:17.620Z,95939.81
2023-03-21T13:09:46.497Z,95941.50
2023-03-21T13:12:49.963Z,95936.06
2023-03-21T13:15:40.975Z,95932.19
2023-03-21T13:18:24.135Z,95929.03
2023-03-21T13:20:57.587Z,95928.84
2023-03-21T13:23:34.148Z,95916.53
2023-03-21T13:26:02.166Z,95926.25
2023-03-21T13:28:34.742Z,95915.69
2023-03-21T13:31:22.669Z,95915.38
2023-03-21T13:33:54.161Z,95904.25
2023-03-21T13:36:26.950Z,95907.75
2023-03-21T13:39:01.148Z,95919.47
2023-03-21T13:41:33.944Z,95904.19
2023-03-21T13:44:21.079Z,95913.53
2023-03-21T13:46:57.260Z,95912.50
2023-03-21T13:49:32.603Z,95900.19
2023-03-21T13:52:02.507Z,95895.06
2023-03-21T13:54:48.600Z,95894.19
2023-03-21T13:57:38.307Z,95894.97
2023-03-21T14:00:20.709Z,95891.03
2023-03-21T14:02:57.846Z,95898.63
2023-03-21T14:05:29.027Z,95890.66
2023-03-21T14:08:13.596Z,95885.94
2023-03-21T14:10:47.772Z,95889.50
2023-03-21T14:13:20.749Z,95887.22
2023-03-21T14:15:55.993Z,95881.78
2023-03-21T14:18:52.375Z,95887.72
2023-03-21T14:21:24.181Z,95883.13
2023-03-21T14:24:04.502Z,95882.84
2023-03-21T14:26:35.384Z,95881.88
2023-03-21T14:29:09.703Z,95874.56
2023-03-21T14:31:46.534Z,95872.34
2023-03-21T14:34:17.889Z,95870.75
2023-03-21T14:36:56.910Z,95872.00
2023-03-21T14:39:30.003Z,95855.03
2023-03-21T14:42:04.353Z,95868.44
2023-03-21T14:44:53.056Z,95865.78
2023-03-21T14:47:24.838Z,95864.28
2023-03-21T14:49:54.724Z,95861.25
2023-03-21T14:52:26.595Z,95859.50
2023-03-21T14:54:57.142Z,95858.44
2023-03-21T14:57:28.802Z,95855.41
2023-03-21T15:00:10.649Z,95852.75
2023-03-21T15:02:41.946Z,95857.78
2023-03-21T15:05:19.745Z,95856.28
2023-03-21T15:07:56.683Z,95850.84
2023-03-21T15:10:26.977Z,95840.56
2023-03-21T15:12:58.041Z,95848.75
2023-03-21T15:15:28.451Z,95834.03
2023-03-21T15:18:02.417Z,95835.56
2023-03-21T15:20:37.518Z,95842.78
2023-03-21T15:23:11.458Z,95844.63
2023-03-21T15:25:40.751Z,95837.50
2023-03-21T15:28:09.252Z,95839.78
2023-03-21T15:30:37.317Z,95844.69
2023-03-21T15:33:13.910Z,95841.69
2023-03-21T15:35:47.298Z,95840.13
2023-03-21T15:38:31.517Z,95835.34
2023-03-21T15:41:16.573Z,95831.53
2023-03-21T15:43:45.029Z,95823.13
2023-03-21T15:46:18.494Z,95837.34
2023-03-21T15:48:46.874Z,95829.44
2023-03-21T15:51:24.416Z,95825.47
2023-03-21T15:53:54.443Z,95827.22
2023-03-21T15:56:23.916Z,95827.06
2023-03-21T15:58:54.077Z,95823.34
2023-03-21T16:01:26.312Z,95833.63
2023-03-21T16:03:58.291Z,95829.75
2023-03-21T16:06:34.615Z,95837.78
2023-03-21T16:09:14.070Z,95835.78
2023-03-21T16:11:44.681Z,95841.91
2023-03-21T16:14:12.559Z,95838.47
2023-03-21T16:16:40.805Z,95841.91
2023-03-21T16:19:08.816Z,95839.75
2023-03-21T16:21:42.145Z,95827.19
2023-03-21T16:24:12.421Z,95827.31
2023-03-21T16:26:45.867Z,95835.91
2023-03-21T16:29:14.965Z,95841.47
2023-03-21T16:31:43.704Z,95839.75
2023-03-21T16:34:12.571Z,95847.81
2023-03-21T16:36:44.000Z,95835.94
2023-03-21T16:39:18.840Z,95839.22
2023-03-21T16:41:46.823Z,95847.16
2023-03-21T16:44:14.831Z,95845.72
2023-03-21T16:46:42.771Z,95848.13
2023-03-21T16:49:20.429Z,95838.84
2023-03-21T16:51:49.872Z,95837.97
2023-03-21T16:54:18.148Z,95820.25
2023-03-21T16:56:50.488Z,95840.66
2023-03-21T16:59:18.759Z,95840.34
2023-03-21T17:01:48.204Z,95854.66
2023-03-21T17:04:17.492Z,95851.66
2023-03-21T17:06:47.949Z,95844.03
2023-03-21T17:09:20.119Z,95849.34
2023-03-21T17:11:49.371Z,95854.06
2023-03-21T17:14:18.615Z,95857.56
2023-03-21T17:16:47.102Z,95854.28
2023-03-21T17:19:17.093Z,95859.78
2023-03-21T17:21:45.697Z,95860.22
2023-03-21T17:24:14.086Z,95868.78
2023-03-21T17:26:43.444Z,95853.16
2023-03-21T17:29:13.827Z,95856.38
2023-03-21T17:31:42.476Z,95865.59
2023-03-21T17:34:11.137Z,95858.72
2023-03-21T17:36:42.478Z,95851.69
2023-03-21T17:39:18.151Z,95865.97
2023-03-21T17:41:47.443Z,95843.63
2023-03-21T17:44:15.408Z,95861.72
2023-03-21T17:46:43.462Z,95853.84
2023-03-21T17:49:14.978Z,95855.31
2023-03-21T17:51:43.346Z,95860.09
2023-03-21T17:54:11.351Z,95868.00
2023-03-21T17:56:40.953Z,95873.19
2023-03-21T17:59:14.472Z,95872.72
2023-03-21T18:01:42.645Z,95872.81
2023-03-21T18:04:11.255Z,95866.59
2023-03-21T18:06:39.209Z,95857.94
2023-03-21T18:09:11.669Z,95881.59
2023-03-21T18:11:40.787Z,95870.59
2023-03-21T18:14:17.251Z,95882.56
2023-03-21T18:16:46.489Z,95875.41
2023-03-21T18:19:15.072Z,95876.66
2023-03-21T18:21:45.261Z,95882.72
2023-03-21T18:24:14.059Z,95878.69
2023-03-21T18:26:42.703Z,95869.31
2023-03-21T18:32:07.532Z,95874.56
2023-03-21T18:34:36.817Z,95875.25
2023-03-21T18:37:06.392Z,95883.91
2023-03-21T18:39:36.253Z,95876.44
2023-03-21T18:42:04.833Z,95879.31
2023-03-21T18:44:39.682Z,95877.31
2023-03-21T18:47:08.543Z,95877.34
2023-03-21T18:52:26.399Z,95887.63
2023-03-21T18:54:54.657Z,95890.06
2023-03-21T18:57:39.037Z,95892.41
2023-03-21T19:00:13.267Z,95896.91
2023-03-21T19:02:47.054Z,95895.31
2023-03-21T19:05:17.092Z,95900.44
2023-03-21T19:07:53.356Z,95897.72
2023-03-21T19:10:23.539Z,95892.19
2023-03-21T19:12:54.794Z,95896.94
2023-03-21T19:15:25.460Z,95897.34
2023-03-21T19:20:46.905Z,95897.44
2023-03-21T19:23:16.255Z,95898.94
2023-03-21T19:25:45.193Z,95897.44
2023-03-21T19:28:13.114Z,95889.56
2023-03-21T19:30:49.688Z,95892.69
2023-03-21T19:33:19.960Z,95898.19
2023-03-21T19:35:49.101Z,95900.53
2023-03-21T19:38:17.149Z,95892.22
2023-03-21T19:40:46.313Z,95891.47
2023-03-21T19:43:32.164Z,95895.88
2023-03-21T19:46:02.859Z,95891.97
2023-03-21T19:48:32.047Z,95890.75
2023-03-21T19:51:26.816Z,95889.47
2023-03-21T19:53:50.405Z,95885.09
2023-03-21T19:56:23.757Z,95889.47
2023-03-21T19:58:54.178Z,95886.00
2023-03-21T20:01:25.147Z,95880.81
2023-03-21T20:03:53.318Z,95891.06
2023-03-21T20:06:23.865Z,95885.50
2023-03-21T20:11:39.971Z,95885.47
2023-03-21T20:14:07.915Z,95887.44
2023-03-21T20:16:37.850Z,95883.47
2023-03-21T20:19:09.996Z,95896.53
2023-03-21T20:21:48.520Z,95890.13
2023-03-21T20:24:18.057Z,95889.78
2023-03-21T20:26:47.132Z,95885.59
2023-03-21T20:32:05.793Z,95886.47
2023-03-21T20:34:36.803Z,95899.94
2023-03-21T20:37:06.329Z,95888.78
2023-03-21T20:39:34.531Z,95891.91
2023-03-21T20:42:02.558Z,95884.78
2023-03-21T20:47:25.593Z,95889.56
2023-03-21T20:49:54.392Z,95883.25
2023-03-21T20:52:57.471Z,95876.72
2023-03-21T20:55:22.054Z,95880.97
2023-03-21T20:57:50.961Z,95887.22
2023-03-21T21:00:26.618Z,95867.91
2023-03-21T21:02:57.874Z,95871.09
2023-03-21T21:05:30.617Z,95868.81
2023-03-21T21:08:04.967Z,95879.41
2023-03-21T21:10:33.814Z,95865.63
2023-03-21T21:13:02.425Z,95865.16
2023-03-21T21:15:30.546Z,95860.88
2023-03-21T21:18:08.290Z,95865.69
2023-03-21T21:20:38.812Z,95869.69
2023-03-21T21:23:09.597Z,95874.06
2023-03-21T21:25:37.911Z,95851.22
2023-03-21T21:28:09.299Z,95879.25
2023-03-21T21:30:41.904Z,95886.34
2023-03-21T21:33:11.475Z,95857.50
2023-03-21T21:35:39.637Z,95874.38
2023-03-21T21:38:09.306Z,95861.38
2023-03-21T21:40:37.790Z,95867.72
2023-03-21T21:43:07.991Z,95857.09
2023-03-21T21:45:43.895Z,95870.06
2023-03-21T21:48:15.637Z,95867.72
2023-03-21T21:50:44.311Z,95870.06
2023-03-21T21:53:13.332Z,95862.94
2023-03-21T21:56:08.388Z,95879.13
2023-03-21T21:58:38.957Z,95870.47
2023-03-21T22:01:08.207Z,95883.84
2023-03-21T22:03:41.106Z,95856.31
2023-03-21T22:06:10.891Z,95854.78
2023-03-21T22:08:39.592Z,95875.69
2023-03-21T22:11:08.196Z,95886.72
2023-03-21T22:13:36.380Z,95893.44
2023-03-21T22:16:04.643Z,95881.56
2023-03-21T22:18:36.004Z,95891.41
2023-03-21T22:21:10.564Z,95900.06
2023-03-21T22:23:41.494Z,95905.22
2023-03-21T22:26:12.351Z,95892.16
2023-03-21T22:28:43.673Z,95893.78
2023-03-21T22:31:14.641Z,95896.63
2023-03-21T22:33:44.964Z,95892.28
2023-03-21T22:36:14.705Z,95888.34
2023-03-21T22:38:44.011Z,95872.53
2023-03-21T22:41:12.435Z,95876.50
2023-03-21T22:43:40.786Z,95865.84
2023-03-21T22:46:09.090Z,95860.72
2023-03-21T22:48:37.216Z,95873.72
2023-03-21T22:51:05.754Z,95871.69
2023-03-21T22:53:35.132Z,95867.38
2023-03-21T22:56:03.418Z,95879.59
2023-03-21T22:58:31.496Z,95859.06
2023-03-21T23:01:02.610Z,95862.59
2023-03-21T23:03:30.698Z,95863.03
2023-03-21T23:06:01.657Z,95870.94
2023-03-21T23:08:30.074Z,95858.66
2023-03-21T23:10:59.454Z,95857.06
2023-03-21T23:13:28.795Z,95853.50
2023-03-21T23:15:57.142Z,95848.44
2023-03-21T23:18:25.220Z,95844.50
2023-03-21T23:20:53.651Z,95851.28
2023-03-21T23:23:21.658Z,95826.00
2023-03-21T23:25:49.564Z,95848.88
2023-03-21T23:28:20.239Z,95852.78
2023-03-21T23:30:48.215Z,95861.50
2023-03-21T23:33:16.399Z,95842.50
2023-03-21T23:35:46.090Z,95863.84
2023-03-21T23:38:14.234Z,95840.59
2023-03-21T23:40:42.329Z,95840.13
2023-03-21T23:43:10.450Z,95856.69
2023-03-21T23:45:39.810Z,95845.25
2023-03-21T23:48:08.115Z,95866.63
2023-03-21T23:50:36.144Z,95851.22
2023-03-21T23:53:04.145Z,95854.38
2023-03-21T23:55:32.349Z,95858.31
2023-03-21T23:58:00.428Z,95857.50
